Time;durP1;ratioP1;P1;durP2;ratioP2;P2;SDS_P1;SDS_P2;PMS_P1;PMS_P2;Temp;Humidity;BMP_temperature;BMP_pressure;BME280_temperature;BME280_humidity;BME280_pressure;Samples;Min_cycle;Max_cycle;Signal;HPM_P1;HPM_P2
2023/11/21 00:04:27;;;;;;;;;;;;;;;6.34;100.00;95207.09;10601057;27;2680;-68
2023/11/21 00:09:30;;;;;;;;;;;;;;;6.33;100.00;95212.72;10605340;27;1673;-66
2023/11/21 00:14:33;;;;;;;;;;;;;;;6.25;100.00;95202.53;10600654;27;4750;-69
2023/11/21 00:19:35;;;;;;;;;;;;;;;6.16;100.00;95202.22;10610293;27;2313;-67
2023/11/21 00:24:38;;;;;;;;;;;;;;;6.10;100.00;95197.91;10604329;27;1834;-69
2023/11/21 00:29:40;;;;;;;;;;;;;;;6.08;100.00;95179.50;10604407;27;1612;-72
2023/11/21 00:34:43;;;;;;;;;;;;;;;6.06;100.00;95173.63;10601855;27;1452;-69
2023/11/21 00:39:49;;;;;;;;;;;;;;;6.00;100.00;95160.53;10585974;27;1969;-68
2023/11/21 00:44:52;;;;;;;;;;;;;;;5.96;100.00;95161.03;10616179;27;1716;-69
2023/11/21 00:49:54;;;;;;;;;;;;;;;6.05;100.00;95158.69;10597386;27;1510;-67
2023/11/21 00:54:59;;;;;;;;;;;;;;;6.12;100.00;95163.78;10591133;27;2741;-68
2023/11/21 01:00:06;;;;;;;;;;;;;;;6.15;100.00;95165.91;10597346;27;2866;-68
2023/11/21 01:05:09;;;;;;;;;;;;;;;6.21;100.00;95159.53;10599243;27;2811;-69
2023/11/21 01:10:11;;;;;;;;;;;;;;;6.24;100.00;95161.69;10601188;27;2820;-69
2023/11/21 01:15:14;;;;;;;;;;;;;;;6.30;100.00;95158.00;10599004;27;4642;-69
2023/11/21 01:20:17;;;;;;;;;;;;;;;6.32;100.00;95168.41;10594213;27;2856;-70
2023/11/21 01:25:21;;;;;;;;;;;;;;;6.27;100.00;95163.84;10594851;27;2862;-67
2023/11/21 01:30:23;;;;;;;;;;;;;;;6.34;100.00;95167.06;10592835;27;2835;-69
2023/11/21 01:35:26;;;;;;;;;;;;;;;6.38;100.00;95162.81;10591433;27;2847;-68
2023/11/21 01:40:30;;;;;;;;;;;;;;;6.46;100.00;95164.16;10586881;27;2955;-68
2023/11/21 01:45:33;;;;;;;;;;;;;;;6.45;100.00;95163.38;10577843;27;2982;-68
2023/11/21 01:50:36;;;;;;;;;;;;;;;6.45;100.00;95159.91;10594949;27;3394;-67
2023/11/21 01:55:39;;;;;;;;;;;;;;;6.46;100.00;95164.97;10597561;27;2869;-67
2023/11/21 02:00:43;;;;;;;;;;;;;;;6.53;100.00;95170.06;10590295;27;2923;-68
2023/11/21 02:05:46;;;;;;;;;;;;;;;6.57;100.00;95175.69;10592265;27;2945;-71
2023/11/21 02:10:48;;;;;;;;;;;;;;;6.66;100.00;95168.75;10590080;27;2866;-67
2023/11/21 02:15:54;;;;;;;;;;;;;;;6.69;100.00;95157.56;10591494;27;4653;-68
2023/11/21 02:20:58;;;;;;;;;;;;;;;6.67;100.00;95160.47;10573934;27;2837;-67
2023/11/21 02:26:04;;;;;;;;;;;;;;;6.63;100.00;95163.97;10595725;27;2863;-66
2023/11/21 02:31:07;;;;;;;;;;;;;;;6.47;100.00;95158.56;10592244;27;2832;-67
2023/11/21 02:36:10;;;;;;;;;;;;;;;6.28;100.00;95168.09;10591569;27;2936;-67
2023/11/21 02:41:13;;;;;;;;;;;;;;;6.08;100.00;95174.16;10586635;27;2885;-67
2023/11/21 02:46:16;;;;;;;;;;;;;;;6.00;100.00;95168.53;10588982;27;2859;-68
2023/11/21 02:51:18;;;;;;;;;;;;;;;5.99;100.00;95164.25;10594826;27;2876;-68
2023/11/21 02:56:21;;;;;;;;;;;;;;;6.03;100.00;95160.78;10595832;27;2947;-67
2023/11/21 03:01:28;;;;;;;;;;;;;;;6.04;100.00;95157.06;10590509;27;2919;-69
2023/11/21 03:06:31;;;;;;;;;;;;;;;6.04;100.00;95156.25;10595622;27;2823;-68
2023/11/21 03:11:34;;;;;;;;;;;;;;;6.03;100.00;95160.00;10590580;27;2881;-67
2023/11/21 03:16:38;;;;;;;;;;;;;;;6.04;100.00;95156.25;10587945;27;4780;-66
2023/11/21 03:21:40;;;;;;;;;;;;;;;6.09;100.00;95149.06;10570983;27;2939;-70
2023/11/21 03:26:44;;;;;;;;;;;;;;;6.07;100.00;95150.41;10583703;27;2855;-69
2023/11/21 03:31:49;;;;;;;;;;;;;;;6.00;100.00;95136.50;10591462;27;2849;-68
2023/11/21 03:36:52;;;;;;;;;;;;;;;5.99;100.00;95142.91;10586104;27;2910;-68
2023/11/21 03:41:54;;;;;;;;;;;;;;;6.06;100.00;95144.28;10586124;27;2992;-68
2023/11/21 03:46:57;;;;;;;;;;;;;;;6.08;100.00;95134.13;10588005;27;2870;-68
2023/11/21 03:52:00;;;;;;;;;;;;;;;6.08;100.00;95136.00;10572513;27;2824;-68
2023/11/21 03:57:02;;;;;;;;;;;;;;;5.93;100.00;95145.56;10586607;27;2826;-67
2023/11/21 04:02:05;;;;;;;;;;;;;;;5.78;100.00;95141.97;10588806;27;2870;-69
2023/11/21 04:07:08;;;;;;;;;;;;;;;5.67;100.00;95139.25;10589030;27;2829;-68
2023/11/21 04:12:10;;;;;;;;;;;;;;;5.61;100.00;95144.81;10573865;27;4689;-68
2023/11/21 04:17:13;;;;;;;;;;;;;;;5.65;100.00;95135.22;10584047;27;2811;-73
2023/11/21 04:22:18;;;;;;;;;;;;;;;5.63;100.00;95134.69;10592156;27;2798;-68
2023/11/21 04:27:21;;;;;;;;;;;;;;;5.67;100.00;95146.44;10598919;27;2883;-68
2023/11/21 04:32:24;;;;;;;;;;;;;;;5.70;100.00;95149.38;10596870;27;2873;-68
2023/11/21 04:37:26;;;;;;;;;;;;;;;5.81;100.00;95157.47;10592329;27;2871;-67
2023/11/21 04:42:30;;;;;;;;;;;;;;;5.88;100.00;95152.69;10599703;27;2867;-67
2023/11/21 04:47:32;;;;;;;;;;;;;;;6.03;100.00;95143.97;10596993;27;3033;-70
2023/11/21 04:52:36;;;;;;;;;;;;;;;5.99;100.00;95137.56;10594126;27;2855;-68
2023/11/21 04:57:39;;;;;;;;;;;;;;;6.01;100.00;95140.78;10593654;27;3049;-68
2023/11/21 05:02:44;;;;;;;;;;;;;;;6.00;100.00;95150.66;10594436;27;2956;-69
2023/11/21 05:07:47;;;;;;;;;;;;;;;6.07;100.00;95147.75;10604377;27;2997;-70
2023/11/21 05:12:50;;;;;;;;;;;;;;;6.02;100.00;95143.19;10578741;27;4737;-67
2023/11/21 05:17:53;;;;;;;;;;;;;;;5.94;100.00;95152.50;10581196;27;2878;-68
2023/11/21 05:22:56;;;;;;;;;;;;;;;5.96;100.00;95152.22;10589504;27;2911;-68
2023/11/21 05:28:01;;;;;;;;;;;;;;;6.00;100.00;95156.00;10590682;27;2933;-68
2023/11/21 05:33:04;;;;;;;;;;;;;;;6.02;100.00;95151.19;10595423;27;2837;-69
2023/11/21 05:38:07;;;;;;;;;;;;;;;6.13;100.00;95160.03;10595793;27;2876;-68
2023/11/21 05:43:09;;;;;;;;;;;;;;;6.20;100.00;95163.28;10578328;27;2871;-66
2023/11/21 05:48:12;;;;;;;;;;;;;;;6.23;100.00;95170.75;10598860;27;3645;-68
2023/11/21 05:53:15;;;;;;;;;;;;;;;6.21;100.00;95170.22;10597390;27;2854;-67
2023/11/21 05:58:18;;;;;;;;;;;;;;;6.21;100.00;95168.34;10600304;27;2854;-68
2023/11/21 06:03:21;;;;;;;;;;;;;;;6.17;100.00;95163.78;10573205;27;2846;-70
2023/11/21 06:08:24;;;;;;;;;;;;;;;6.12;100.00;95163.78;10582550;27;2852;-69
2023/11/21 06:13:27;;;;;;;;;;;;;;;6.12;100.00;95172.59;10595537;27;4756;-70
2023/11/21 06:18:30;;;;;;;;;;;;;;;6.14;100.00;95177.66;10575066;27;2873;-67
2023/11/21 06:23:33;;;;;;;;;;;;;;;6.18;100.00;95184.09;10598444;27;2820;-68
2023/11/21 06:28:35;;;;;;;;;;;;;;;6.17;100.00;95187.81;10592270;27;2950;-67
2023/11/21 06:33:38;;;;;;;;;;;;;;;6.15;100.00;95184.59;10589473;27;2952;-67
2023/11/21 06:38:41;;;;;;;;;;;;;;;6.20;100.00;95197.97;10593648;27;2896;-68
2023/11/21 06:43:46;;;;;;;;;;;;;;;6.22;100.00;95191.31;10593227;27;2855;-66
2023/11/21 06:48:49;;;;;;;;;;;;;;;6.30;100.00;95198.03;10592275;27;2915;-67
2023/11/21 06:53:52;;;;;;;;;;;;;;;6.28;100.00;95205.47;10573747;27;2894;-68
2023/11/21 06:58:54;;;;;;;;;;;;;;;6.34;100.00;95219.66;10594571;27;3747;-68
2023/11/21 07:03:57;;;;;;;;;;;;;;;6.38;100.00;95218.88;10590605;27;2832;-67
2023/11/21 07:09:01;;;;;;;;;;;;;;;6.40;100.00;95224.75;10591345;27;2815;-70
2023/11/21 07:14:07;;;;;;;;;;;;;;;6.45;100.00;95214.09;10591740;27;4701;-72
2023/11/21 07:19:10;;;;;;;;;;;;;;;6.54;100.00;95227.75;10588470;27;2872;-71
2023/11/21 07:24:13;;;;;;;;;;;;;;;6.63;100.00;95233.41;10591616;27;2908;-69
2023/11/21 07:29:15;;;;;;;;;;;;;;;6.63;100.00;95226.19;10589455;27;2934;-72
2023/11/21 07:34:20;;;;;;;;;;;;;;;6.71;100.00;95232.88;10594930;27;2748;-69
2023/11/21 07:39:25;;;;;;;;;;;;;;;6.79;100.00;95227.03;10593650;27;2714;-67
2023/11/21 07:44:27;;;;;;;;;;;;;;;6.94;100.00;95220.94;10592612;27;2583;-71
2023/11/21 07:49:31;;;;;;;;;;;;;;;7.06;100.00;95232.16;10582731;27;2637;-71
2023/11/21 07:54:35;;;;;;;;;;;;;;;7.34;100.00;95228.22;10596463;27;2634;-69
2023/11/21 07:59:38;;;;;;;;;;;;;;;7.41;100.00;95228.75;10602219;27;2684;-69
2023/11/21 08:04:41;;;;;;;;;;;;;;;7.36;100.00;95226.06;10593425;27;2579;-72
2023/11/21 08:09:44;;;;;;;;;;;;;;;7.37;100.00;95221.53;10593700;27;2559;-69
2023/11/21 08:14:47;;;;;;;;;;;;;;;7.37;100.00;95227.66;10596092;27;4963;-69
2023/11/21 08:19:51;;;;;;;;;;;;;;;7.30;100.00;95233.28;10595825;27;2710;-68
2023/11/21 08:24:56;;;;;;;;;;;;;;;7.22;100.00;95235.69;10594201;27;2620;-69
2023/11/21 08:29:59;;;;;;;;;;;;;;;7.62;100.00;95229.56;10591808;27;2619;-72
2023/11/21 08:35:02;;;;;;;;;;;;;;;7.91;100.00;95239.72;10598152;27;2639;-74
2023/11/21 08:40:04;;;;;;;;;;;;;;;7.98;100.00;95230.34;10597987;27;2703;-74
2023/11/21 08:45:08;;;;;;;;;;;;;;;8.03;100.00;95230.34;10592868;27;2583;-70
2023/11/21 08:50:15;;;;;;;;;;;;;;;8.14;100.00;95225.75;10595765;27;2673;-69
2023/11/21 08:55:19;;;;;;;;;;;;;;;8.25;100.00;95232.69;10596176;27;2529;-70
2023/11/21 09:00:22;;;;;;;;;;;;;;;8.16;100.00;95233.53;10593270;27;2598;-68
2023/11/21 09:05:26;;;;;;;;;;;;;;;8.20;100.00;95242.59;10604369;27;2562;-69
2023/11/21 09:10:32;;;;;;;;;;;;;;;8.02;100.00;95244.78;10594873;27;2564;-71
2023/11/21 09:15:35;;;;;;;;;;;;;;;7.61;100.00;95248.56;10602528;27;4781;-69
2023/11/21 09:20:37;;;;;;;;;;;;;;;7.57;100.00;95259.78;10600178;27;2623;-68
2023/11/21 09:25:40;;;;;;;;;;;;;;;7.73;100.00;95268.63;10575835;27;2589;-69
2023/11/21 09:30:43;;;;;;;;;;;;;;;7.51;100.00;95276.91;10597233;27;2699;-68
2023/11/21 09:35:46;;;;;;;;;;;;;;;7.43;100.00;95277.41;10595751;27;2623;-71
2023/11/21 09:40:49;;;;;;;;;;;;;;;7.42;100.00;95280.34;10594588;27;2609;-70
2023/11/21 09:45:53;;;;;;;;;;;;;;;7.66;100.00;95277.97;10600356;27;2568;-68
2023/11/21 09:50:55;;;;;;;;;;;;;;;7.90;100.00;95262.19;10603501;27;2552;-69
2023/11/21 09:56:00;;;;;;;;;;;;;;;8.12;100.00;95265.38;10595345;27;2708;-68
2023/11/21 10:01:06;;;;;;;;;;;;;;;8.46;100.00;95257.59;10598684;27;2592;-69
2023/11/21 10:06:09;;;;;;;;;;;;;;;8.48;100.00;95266.13;10600257;27;2698;-69
2023/11/21 10:11:12;;;;;;;;;;;;;;;8.65;100.00;95263.13;10598036;27;2665;-68
2023/11/21 10:16:16;;;;;;;;;;;;;;;8.55;100.00;95261.28;10598320;27;4680;-73
2023/11/21 10:21:19;;;;;;;;;;;;;;;8.66;100.00;95260.19;10594328;27;2743;-70
2023/11/21 10:26:23;;;;;;;;;;;;;;;8.93;100.00;95261.69;10594180;27;2691;-70
2023/11/21 10:31:33;;;;;;;;;;;;;;;8.94;100.00;95260.59;10578993;27;2804;-68
2023/11/21 10:36:39;;;;;;;;;;;;;;;8.90;100.00;95260.34;10600518;27;2554;-69
2023/11/21 10:41:45;;;;;;;;;;;;;;;8.62;100.00;95269.03;10589173;27;2652;-68
2023/11/21 10:46:50;;;;;;;;;;;;;;;8.90;100.00;95272.94;10595824;27;2691;-68
2023/11/21 10:51:53;;;;;;;;;;;;;;;9.27;100.00;95269.00;10589953;27;2582;-66
2023/11/21 10:56:56;;;;;;;;;;;;;;;9.39;100.00;95261.44;10588692;27;2680;-68
2023/11/21 11:02:02;;;;;;;;;;;;;;;9.61;100.00;95251.09;10594944;27;2935;-70
2023/11/21 11:07:06;;;;;;;;;;;;;;;9.70;100.00;95248.59;10597970;27;2694;-76
2023/11/21 11:12:09;;;;;;;;;;;;;;;9.48;100.00;95249.03;10599936;27;4831;-70
2023/11/21 11:17:13;;;;;;;;;;;;;;;9.64;100.00;95255.88;10591566;27;2589;-69
2023/11/21 11:22:16;;;;;;;;;;;;;;;9.66;100.00;95253.72;10592356;27;2604;-70
2023/11/21 11:27:21;;;;;;;;;;;;;;;9.35;100.00;95260.38;10594473;27;2588;-67
2023/11/21 11:32:24;;;;;;;;;;;;;;;9.43;100.00;95251.75;10561904;27;2588;-71
2023/11/21 11:37:28;;;;;;;;;;;;;;;9.50;100.00;95256.81;10579401;27;2614;-71
2023/11/21 11:42:30;;;;;;;;;;;;;;;9.33;100.00;95252.59;10570305;27;2618;-72
2023/11/21 11:47:33;;;;;;;;;;;;;;;9.42;100.00;95245.59;10590464;27;2603;-70
2023/11/21 11:52:38;;;;;;;;;;;;;;;9.29;100.00;95248.91;10594768;27;2614;-69
2023/11/21 11:57:40;;;;;;;;;;;;;;;9.09;100.00;95249.78;10576136;27;2513;-70
2023/11/21 12:02:45;;;;;;;;;;;;;;;9.20;100.00;95248.66;10589578;27;2651;-68
2023/11/21 12:07:47;;;;;;;;;;;;;;;9.53;100.00;95240.94;10590925;27;2553;-69
2023/11/21 12:12:50;;;;;;;;;;;;;;;9.99;100.00;95243.25;10591341;27;4689;-68
2023/11/21 12:17:52;;;;;;;;;;;;;;;9.91;100.00;95241.97;10588889;27;2586;-68
2023/11/21 12:22:55;;;;;;;;;;;;;;;9.51;100.00;95236.94;10590920;27;2706;-71
2023/11/21 12:27:57;;;;;;;;;;;;;;;10.08;100.00;95241.56;10594133;27;2650;-68
2023/11/21 12:33:00;;;;;;;;;;;;;;;10.05;100.00;95236.72;10590686;27;2634;-69
2023/11/21 12:38:03;;;;;;;;;;;;;;;9.47;100.00;95232.13;10592381;27;2702;-71
2023/11/21 12:43:06;;;;;;;;;;;;;;;9.31;100.00;95237.88;10597856;27;2706;-70
2023/11/21 12:48:11;;;;;;;;;;;;;;;9.27;100.00;95247.56;10594061;27;2645;-69
2023/11/21 12:53:16;;;;;;;;;;;;;;;8.87;100.00;95273.50;10599566;27;2611;-69
2023/11/21 12:58:20;;;;;;;;;;;;;;;8.77;100.00;95276.22;10593965;27;2692;-69
2023/11/21 13:03:25;;;;;;;;;;;;;;;8.96;100.00;95274.53;10603581;27;2694;-70
2023/11/21 13:08:30;;;;;;;;;;;;;;;9.08;100.00;95277.69;10598111;27;2576;-69
2023/11/21 13:13:33;;;;;;;;;;;;;;;9.31;100.00;95270.88;10596675;27;4558;-71
2023/11/21 13:18:37;;;;;;;;;;;;;;;9.39;100.00;95277.53;10596685;27;2596;-70
2023/11/21 13:23:41;;;;;;;;;;;;;;;8.89;100.00;95290.91;10580252;27;2616;-68
2023/11/21 13:28:46;;;;;;;;;;;;;;;8.43;100.00;95295.59;10597966;27;2697;-68
2023/11/21 13:33:55;;;;;;;;;;;;;;;8.39;100.00;95302.56;10598063;27;2596;-70
2023/11/21 13:38:58;;;;;;;;;;;;;;;8.52;100.00;95312.72;10591076;27;2707;-69
2023/11/21 13:44:14;;;;;;;;;;;;;;;8.54;100.00;95321.31;10595936;27;2627;-68
2023/11/21 13:49:18;;;;;;;;;;;;;;;8.40;100.00;95312.22;10592299;27;2597;-69
2023/11/21 13:54:21;;;;;;;;;;;;;;;8.40;100.00;95325.63;10598703;27;2652;-69
2023/11/21 13:59:28;;;;;;;;;;;;;;;8.11;100.00;95323.47;10596897;27;2576;-68
2023/11/21 14:04:52;;;;;;;;;;;;;;;7.97;100.00;95326.97;10597945;27;2579;-73
2023/11/21 14:09:56;;;;;;;;;;;;;;;7.78;100.00;95334.72;10594823;27;2742;-70
2023/11/21 14:14:58;;;;;;;;;;;;;;;7.59;100.00;95337.09;10595950;27;5073;-70
2023/11/21 14:20:05;;;;;;;;;;;;;;;7.12;100.00;95353.25;10583224;27;2699;-72
2023/11/21 14:25:08;;;;;;;;;;;;;;;7.09;100.00;95354.59;10591012;27;2654;-71
2023/11/21 14:30:13;;;;;;;;;;;;;;;6.93;100.00;95351.03;10596576;27;2654;-70
2023/11/21 14:35:16;;;;;;;;;;;;;;;6.70;100.00;95354.16;10592945;27;2657;-71
2023/11/21 14:40:21;;;;;;;;;;;;;;;6.83;100.00;95367.03;10596747;27;2598;-70
2023/11/21 14:45:26;;;;;;;;;;;;;;;6.78;100.00;95369.69;10594798;27;2562;-69
2023/11/21 14:50:51;;;;;;;;;;;;;;;6.87;100.00;95380.66;10590540;27;2724;-69
2023/11/21 14:55:59;;;;;;;;;;;;;;;6.91;100.00;95385.25;10591477;27;2554;-70
2023/11/21 15:01:01;;;;;;;;;;;;;;;6.95;100.00;95391.69;10587674;27;2698;-71
2023/11/21 15:06:18;;;;;;;;;;;;;;;6.98;100.00;95388.47;10573241;27;2611;-69
2023/11/21 15:11:26;;;;;;;;;;;;;;;7.10;100.00;95392.81;10590056;27;2712;-69
2023/11/21 15:16:30;;;;;;;;;;;;;;;7.02;100.00;95381.56;10595933;27;4713;-69
2023/11/21 15:21:33;;;;;;;;;;;;;;;7.09;100.00;95381.31;10590382;27;2644;-70
2023/11/21 15:26:36;;;;;;;;;;;;;;;7.11;100.00;95389.06;10591852;27;2664;-69
2023/11/21 15:31:41;;;;;;;;;;;;;;;7.12;100.00;95386.13;10592174;27;2624;-69
2023/11/21 15:36:44;;;;;;;;;;;;;;;7.19;100.00;95386.72;10587982;27;2614;-71
2023/11/21 15:41:47;;;;;;;;;;;;;;;6.99;100.00;95400.78;10586751;27;2674;-69
2023/11/21 15:46:49;;;;;;;;;;;;;;;6.74;100.00;95406.81;10593453;27;2647;-70
2023/11/21 15:51:55;;;;;;;;;;;;;;;6.64;100.00;95417.41;10588920;27;3125;-69
2023/11/21 15:56:59;;;;;;;;;;;;;;;6.62;100.00;95416.06;10594535;27;2687;-68
2023/11/21 16:02:04;;;;;;;;;;;;;;;6.45;100.00;95438.38;10570264;27;2597;-68
2023/11/21 16:07:09;;;;;;;;;;;;;;;6.53;100.00;95446.97;10589321;27;2616;-70
2023/11/21 16:12:12;;;;;;;;;;;;;;;6.30;100.00;95435.59;10599380;27;4654;-67
2023/11/21 16:17:17;;;;;;;;;;;;;;;6.20;100.00;95446.19;10598388;27;2734;-71
2023/11/21 16:22:20;;;;;;;;;;;;;;;6.16;100.00;95453.06;10607890;27;2590;-72
2023/11/21 16:27:23;;;;;;;;;;;;;;;6.12;100.00;95458.13;10601235;27;2604;-69
2023/11/21 16:32:26;;;;;;;;;;;;;;;6.22;100.00;95468.06;10605661;27;2650;-69
2023/11/21 16:37:31;;;;;;;;;;;;;;;6.33;100.00;95469.78;10589908;27;2634;-69
2023/11/21 16:42:37;;;;;;;;;;;;;;;6.42;100.00;95484.25;10605403;27;2615;-71
2023/11/21 16:47:41;;;;;;;;;;;;;;;6.52;100.00;95488.09;10605977;27;2601;-71
2023/11/21 16:52:45;;;;;;;;;;;;;;;6.60;100.00;95503.63;10604368;27;2772;-69
2023/11/21 16:57:47;;;;;;;;;;;;;;;6.70;100.00;95509.06;10606343;27;2640;-69
2023/11/21 17:02:50;;;;;;;;;;;;;;;6.75;100.00;95504.59;10613742;27;2053;-68
2023/11/21 17:07:54;;;;;;;;;;;;;;;6.71;100.00;95514.16;10618240;27;1549;-73
2023/11/21 17:12:57;;;;;;;;;;;;;;;6.71;100.00;95510.69;10598064;27;4736;-69
2023/11/21 17:18:01;;;;;;;;;;;;;;;6.65;100.00;95517.03;10618777;27;2424;-72
2023/11/21 17:23:08;;;;;;;;;;;;;;;6.55;100.00;95522.28;10600319;27;2320;-69
2023/11/21 17:28:13;;;;;;;;;;;;;;;6.49;100.00;95524.13;10617999;27;1593;-71
2023/11/21 17:33:17;;;;;;;;;;;;;;;6.50;100.00;95523.06;10612395;27;1481;-75
2023/11/21 17:38:21;;;;;;;;;;;;;;;6.55;100.00;95530.28;10610454;27;1541;-69
2023/11/21 17:43:24;;;;;;;;;;;;;;;6.57;100.00;95529.00;10604303;27;1910;-69
2023/11/21 17:48:29;;;;;;;;;;;;;;;6.53;100.00;95527.09;10613851;27;1737;-71
2023/11/21 17:53:32;;;;;;;;;;;;;;;6.44;100.00;95532.91;10611539;27;1962;-70
2023/11/21 17:58:36;;;;;;;;;;;;;;;6.33;100.00;95538.38;10612518;27;1574;-75
2023/11/21 18:03:39;;;;;;;;;;;;;;;6.29;100.00;95548.75;10606390;27;1913;-69
2023/11/21 18:08:42;;;;;;;;;;;;;;;6.34;100.00;95551.47;10607832;27;1513;-70
2023/11/21 18:13:45;;;;;;;;;;;;;;;6.37;100.00;95555.53;10610009;27;4808;-69
2023/11/21 18:18:50;;;;;;;;;;;;;;;6.38;100.00;95557.13;10606063;27;1558;-69
2023/11/21 18:23:52;;;;;;;;;;;;;;;6.47;100.00;95545.72;10586317;27;1974;-68
2023/11/21 18:28:56;;;;;;;;;;;;;;;6.54;100.00;95556.19;10604466;27;1470;-69
2023/11/21 18:34:00;;;;;;;;;;;;;;;6.53;100.00;95564.47;10604531;27;1573;-70
2023/11/21 18:39:03;;;;;;;;;;;;;;;6.60;100.00;95565.06;10607063;27;1507;-70
2023/11/21 18:44:09;;;;;;;;;;;;;;;6.61;100.00;95566.66;10592193;27;1913;-70
2023/11/21 18:49:14;;;;;;;;;;;;;;;6.58;100.00;95573.34;10588654;27;2509;-70
2023/11/21 18:54:17;;;;;;;;;;;;;;;6.57;100.00;95586.94;10609396;27;1919;-70
2023/11/21 18:59:23;;;;;;;;;;;;;;;6.53;100.00;95585.84;10604190;27;2472;-68
2023/11/21 19:04:26;;;;;;;;;;;;;;;6.54;100.00;95590.09;10604642;27;1909;-69
2023/11/21 19:09:31;;;;;;;;;;;;;;;6.59;100.00;95595.50;10589897;27;1858;-73
2023/11/21 19:14:34;;;;;;;;;;;;;;;6.38;100.00;95599.84;10606520;27;4737;-68
2023/11/21 19:19:38;;;;;;;;;;;;;;;6.30;100.00;95606.44;10597729;27;2477;-73
2023/11/21 19:24:45;;;;;;;;;;;;;;;6.24;100.00;95604.78;10583589;27;2684;-69
2023/11/21 19:29:47;;;;;;;;;;;;;;;6.04;100.00;95596.50;10591094;27;2567;-69
2023/11/21 19:34:51;;;;;;;;;;;;;;;5.96;100.00;95598.56;10589857;27;2608;-68
2023/11/21 19:39:54;;;;;;;;;;;;;;;5.85;100.00;95612.81;10593839;27;2687;-69
2023/11/21 19:44:56;;;;;;;;;;;;;;;5.75;100.00;95618.00;10590294;27;2825;-69
2023/11/21 19:49:59;;;;;;;;;;;;;;;5.79;100.00;95627.16;10590736;27;2575;-71
2023/11/21 19:55:03;;;;;;;;;;;;;;;5.76;100.00;95627.63;10591648;27;2605;-69
2023/11/21 20:00:10;;;;;;;;;;;;;;;5.78;100.00;95630.84;10580689;27;2883;-70
2023/11/21 20:05:14;;;;;;;;;;;;;;;5.78;100.00;95641.50;10587899;27;3333;-69
2023/11/21 20:10:20;;;;;;;;;;;;;;;5.78;100.00;95654.84;10579787;27;2943;-71
2023/11/21 20:15:25;;;;;;;;;;;;;;;5.73;100.00;95660.13;10592974;27;4717;-70
2023/11/21 20:20:29;;;;;;;;;;;;;;;5.80;100.00;95663.44;10589522;27;2789;-66
2023/11/21 20:25:33;;;;;;;;;;;;;;;5.80;100.00;95675.97;10584387;27;2865;-69
2023/11/21 20:30:36;;;;;;;;;;;;;;;5.81;100.00;95683.72;10587215;27;2850;-68
2023/11/21 20:35:40;;;;;;;;;;;;;;;5.82;100.00;95688.00;10589649;27;2818;-70
2023/11/21 20:40:43;;;;;;;;;;;;;;;5.82;100.00;95693.31;10587628;27;2876;-69
2023/11/21 20:45:45;;;;;;;;;;;;;;;5.88;100.00;95691.53;10571436;27;2868;-69
2023/11/21 20:50:48;;;;;;;;;;;;;;;5.95;100.00;95703.69;10587347;27;2890;-70
2023/11/21 20:55:52;;;;;;;;;;;;;;;6.01;100.00;95717.09;10587916;27;2926;-71
2023/11/21 21:00:56;;;;;;;;;;;;;;;6.05;100.00;95710.22;10596476;27;2989;-71
2023/11/21 21:06:00;;;;;;;;;;;;;;;6.02;100.00;95716.84;10593098;27;2919;-70
2023/11/21 21:11:02;;;;;;;;;;;;;;;6.09;100.00;95719.34;10599439;27;2811;-71
2023/11/21 21:16:06;;;;;;;;;;;;;;;6.01;100.00;95722.44;10594453;27;4641;-72
2023/11/21 21:21:09;;;;;;;;;;;;;;;6.05;100.00;95723.56;10602539;27;2921;-71
2023/11/21 21:26:11;;;;;;;;;;;;;;;6.09;100.00;95735.34;10598309;27;2925;-70
2023/11/21 21:31:17;;;;;;;;;;;;;;;6.03;100.00;95734.47;10595207;27;2831;-70
2023/11/21 21:36:22;;;;;;;;;;;;;;;6.03;100.00;95726.47;10593139;27;2898;-69
2023/11/21 21:41:25;;;;;;;;;;;;;;;5.94;100.00;95738.63;10595955;27;2910;-68
2023/11/21 21:46:28;;;;;;;;;;;;;;;5.97;100.00;95743.44;10581155;27;2868;-70
2023/11/21 21:51:34;;;;;;;;;;;;;;;6.08;100.00;95752.41;10596373;27;2662;-69
2023/11/21 21:56:38;;;;;;;;;;;;;;;6.04;100.00;95748.59;10591815;27;2654;-68
2023/11/21 22:01:41;;;;;;;;;;;;;;;6.09;100.00;95746.03;10591496;27;2605;-71
2023/11/21 22:06:43;;;;;;;;;;;;;;;6.13;100.00;95749.81;10595587;27;2623;-74
2023/11/21 22:11:47;;;;;;;;;;;;;;;6.10;100.00;95747.63;10589427;27;2587;-69
2023/11/21 22:16:50;;;;;;;;;;;;;;;6.07;100.00;95754.28;10596727;27;4688;-68
2023/11/21 22:21:53;;;;;;;;;;;;;;;6.08;100.00;95755.09;10589207;27;2650;-74
2023/11/21 22:26:56;;;;;;;;;;;;;;;6.15;100.00;95755.72;10595583;27;2580;-72
2023/11/21 22:31:59;;;;;;;;;;;;;;;6.04;100.00;95756.63;10591810;27;2613;-68
2023/11/21 22:37:01;;;;;;;;;;;;;;;5.95;100.00;95762.38;10575553;27;2671;-69
2023/11/21 22:42:04;;;;;;;;;;;;;;;5.90;100.00;95770.25;10596326;27;2631;-69
2023/11/21 22:47:07;;;;;;;;;;;;;;;5.78;100.00;95772.22;10594114;27;2590;-69
2023/11/21 22:52:10;;;;;;;;;;;;;;;5.81;100.00;95777.06;10592324;27;2681;-69
2023/11/21 22:57:12;;;;;;;;;;;;;;;5.68;100.00;95785.41;10596551;27;2545;-69
2023/11/21 23:02:15;;;;;;;;;;;;;;;5.73;100.00;95779.34;10594256;27;2682;-69
2023/11/21 23:07:18;;;;;;;;;;;;;;;5.78;100.00;95780.22;10588624;27;2706;-70
2023/11/21 23:12:21;;;;;;;;;;;;;;;5.64;100.00;95790.41;10591326;27;4625;-72
2023/11/21 23:17:24;;;;;;;;;;;;;;;5.65;100.00;95777.88;10597814;27;2662;-70
2023/11/21 23:22:27;;;;;;;;;;;;;;;5.74;100.00;95786.28;10591430;27;2576;-69
2023/11/21 23:27:29;;;;;;;;;;;;;;;5.77;100.00;95781.28;10597393;27;2608;-69
2023/11/21 23:32:32;;;;;;;;;;;;;;;5.60;100.00;95781.28;10593596;27;2783;-71
2023/11/21 23:37:35;;;;;;;;;;;;;;;5.68;100.00;95780.88;10597840;27;2540;-68
2023/11/21 23:42:37;;;;;;;;;;;;;;;5.71;100.00;95787.56;10595727;27;2664;-69
2023/11/21 23:47:40;;;;;;;;;;;;;;;5.56;100.00;95780.13;10593474;27;3731;-69
2023/11/21 23:52:43;;;;;;;;;;;;;;;5.65;100.00;95781.34;10591785;27;2563;-69
2023/11/21 23:57:46;;;;;;;;;;;;;;;5.55;100.00;95783.06;10590605;27;2691;-71
